createdAt,value
2022-10-21T00:00:23.193Z,99625.22
2022-10-21T00:02:54.871Z,99620.25
2022-10-21T00:05:26.715Z,99617.31
2022-10-21T00:07:58.488Z,99621.47
2022-10-21T00:10:30.328Z,99626.19
2022-10-21T00:13:02.105Z,99624.56
2022-10-21T00:15:33.843Z,99623.72
2022-10-21T00:18:05.586Z,99606.88
2022-10-21T00:20:41.308Z,99614.63
2022-10-21T00:23:13.016Z,99616.75
2022-10-21T00:25:47.362Z,99618.25
2022-10-21T00:28:19.536Z,99619.22
2022-10-21T00:30:51.278Z,99623.34
2022-10-21T00:33:23.806Z,99620.47
2022-10-21T00:35:59.431Z,99617.97
2022-10-21T00:38:32.119Z,99619.03
2022-10-21T00:41:04.234Z,99610.19
2022-10-21T00:43:55.830Z,99612.66
2022-10-21T00:46:32.868Z,99607.78
2022-10-21T00:49:12.322Z,99604.56
2022-10-21T00:51:46.361Z,99600.00
2022-10-21T00:54:20.379Z,99594.72
2022-10-21T00:56:54.790Z,99585.03
2022-10-21T00:59:33.873Z,99578.94
2022-10-21T01:02:05.838Z,99567.84
2022-10-21T01:04:40.465Z,99571.63
2022-10-21T01:07:12.379Z,99555.59
2022-10-21T01:09:44.071Z,99553.22
2022-10-21T01:12:41.746Z,99550.47
2022-10-21T01:15:31.645Z,99543.25
2022-10-21T01:18:37.616Z,99537.16
2022-10-21T01:21:20.492Z,99548.53
2022-10-21T01:24:24.499Z,99553.19
2022-10-21T01:27:08.180Z,99557.19
2022-10-21T01:29:54.877Z,99563.56
2022-10-21T01:32:40.679Z,99562.31
2022-10-21T01:35:24.029Z,99551.84
2022-10-21T01:38:21.830Z,99560.44
2022-10-21T01:41:08.712Z,99562.38
2022-10-21T01:43:59.737Z,99553.81
2022-10-21T01:46:42.330Z,99566.97
2022-10-21T01:49:32.771Z,99555.75
2022-10-21T01:52:05.470Z,99556.59
2022-10-21T01:54:59.406Z,99551.84
2022-10-21T01:57:49.820Z,99552.53
2022-10-21T02:00:21.666Z,99544.19
2022-10-21T02:02:53.415Z,99537.81
2022-10-21T02:05:31.984Z,99523.69
2022-10-21T02:08:04.543Z,99518.69
2022-10-21T02:10:42.211Z,99500.00
2022-10-21T02:13:20.547Z,99498.34
2022-10-21T02:15:59.991Z,99525.06
2022-10-21T02:18:31.634Z,99538.66
2022-10-21T02:21:09.008Z,99530.19
2022-10-21T02:23:54.461Z,99523.31
2022-10-21T02:26:27.906Z,99516.25
2022-10-21T02:29:00.642Z,99498.66
2022-10-21T02:31:51.704Z,99514.44
2022-10-21T02:34:30.507Z,99529.41
2022-10-21T02:37:02.072Z,99530.09
2022-10-21T02:39:47.912Z,99538.69
2022-10-21T02:42:25.327Z,99526.31
2022-10-21T02:44:57.285Z,99519.78
2022-10-21T02:47:29.655Z,99506.16
2022-10-21T02:50:01.351Z,99505.69
2022-10-21T02:52:32.980Z,99497.66
2022-10-21T02:55:07.983Z,99487.81
2022-10-21T02:57:40.284Z,99489.38
2022-10-21T03:00:13.070Z,99490.97
2022-10-21T03:02:44.803Z,99491.06
2022-10-21T03:05:17.118Z,99496.34
2022-10-21T03:07:50.268Z,99481.47
2022-10-21T03:10:21.927Z,99473.09
2022-10-21T03:12:56.846Z,99483.16
2022-10-21T03:15:28.494Z,99477.06
2022-10-21T03:18:00.182Z,99468.88
2022-10-21T03:20:32.114Z,99456.53
2022-10-21T03:23:03.768Z,99448.16
2022-10-21T03:25:35.936Z,99452.44
2022-10-21T03:28:07.607Z,99450.78
2022-10-21T03:30:39.452Z,99449.13
2022-10-21T03:33:11.121Z,99444.81
2022-10-21T03:35:42.834Z,99432.97
2022-10-21T03:38:14.492Z,99423.88
2022-10-21T03:40:46.220Z,99412.66
2022-10-21T03:43:20.586Z,99400.44
2022-10-21T03:45:52.248Z,99397.44
2022-10-21T03:48:23.861Z,99369.31
2022-10-21T03:50:56.858Z,99350.16
2022-10-21T03:53:42.749Z,99336.63
2022-10-21T03:56:15.976Z,99325.91
2022-10-21T03:58:47.600Z,99303.50
2022-10-21T04:01:19.352Z,99293.13
2022-10-21T04:03:51.583Z,99288.69
2022-10-21T04:06:23.367Z,99286.88
2022-10-21T04:08:55.123Z,99305.31
2022-10-21T04:11:26.869Z,99307.31
2022-10-21T04:13:58.588Z,99319.50
2022-10-21T04:16:30.516Z,99317.44
2022-10-21T04:19:02.368Z,99317.44
2022-10-21T04:21:34.082Z,99345.09
2022-10-21T04:24:05.791Z,99364.41
2022-10-21T04:26:37.772Z,99368.88
2022-10-21T04:29:09.453Z,99348.31
2022-10-21T04:31:41.263Z,99331.91
2022-10-21T04:34:13.171Z,99312.66
2022-10-21T04:36:44.799Z,99311.19
2022-10-21T04:39:16.491Z,99297.53
2022-10-21T04:41:50.859Z,99284.84
2022-10-21T04:44:22.550Z,99302.81
2022-10-21T04:46:54.330Z,99301.50
2022-10-21T04:49:26.088Z,99322.91
2022-10-21T04:52:00.907Z,99327.72
2022-10-21T04:54:32.547Z,99326.25
2022-10-21T04:57:04.379Z,99304.84
2022-10-21T04:59:36.036Z,99291.19
2022-10-21T05:02:07.783Z,99292.00
2022-10-21T05:04:39.484Z,99305.63
2022-10-21T05:07:11.615Z,99301.69
2022-10-21T05:09:43.349Z,99292.66
2022-10-21T05:12:15.113Z,99290.16
2022-10-21T05:14:46.711Z,99290.84
2022-10-21T05:17:18.465Z,99283.09
2022-10-21T05:19:50.179Z,99280.28
2022-10-21T05:22:21.834Z,99266.09
2022-10-21T05:24:53.464Z,99262.00
2022-10-21T05:27:25.124Z,99266.44
2022-10-21T05:29:58.426Z,99266.59
2022-10-21T05:32:33.351Z,99273.53
2022-10-21T05:35:05.656Z,99262.97
2022-10-21T05:37:37.867Z,99265.63
2022-10-21T05:40:09.976Z,99290.97
2022-10-21T05:42:41.710Z,99283.84
2022-10-21T05:45:14.215Z,99271.34
2022-10-21T05:47:45.893Z,99257.19
2022-10-21T05:50:17.721Z,99276.28
2022-10-21T05:52:49.535Z,99280.22
2022-10-21T05:55:21.249Z,99290.13
2022-10-21T05:57:53.038Z,99294.28
2022-10-21T06:00:24.939Z,99301.00
2022-10-21T06:02:56.626Z,99296.09
2022-10-21T06:05:28.558Z,99292.97
2022-10-21T06:08:00.326Z,99306.66
2022-10-21T06:10:31.985Z,99307.81
2022-10-21T06:13:03.739Z,99291.50
2022-10-21T06:15:37.114Z,99293.50
2022-10-21T06:18:08.775Z,99287.75
2022-10-21T06:20:40.547Z,99287.94
2022-10-21T06:23:13.023Z,99307.19
2022-10-21T06:26:00.169Z,99304.25
2022-10-21T06:28:34.337Z,99292.22
2022-10-21T06:31:12.305Z,99303.25
2022-10-21T06:33:44.288Z,99294.00
2022-10-21T06:36:16.578Z,99287.22
2022-10-21T06:38:48.279Z,99296.44
2022-10-21T06:41:20.009Z,99320.84
2022-10-21T06:43:51.736Z,99312.22
2022-10-21T06:46:23.685Z,99315.22
2022-10-21T06:48:55.394Z,99302.13
2022-10-21T06:51:27.079Z,99309.69
2022-10-21T06:53:59.588Z,99305.69
2022-10-21T06:56:31.918Z,99309.31
2022-10-21T06:59:03.772Z,99308.59
2022-10-21T07:01:48.468Z,99305.41
2022-10-21T07:04:29.618Z,99312.66
2022-10-21T07:07:04.463Z,99301.28
2022-10-21T07:09:36.281Z,99291.47
2022-10-21T07:12:08.191Z,99274.25
2022-10-21T07:14:40.293Z,99276.81
2022-10-21T07:17:12.116Z,99294.66
2022-10-21T07:19:45.005Z,99297.03
2022-10-21T07:22:17.945Z,99297.94
2022-10-21T07:24:49.785Z,99306.56
2022-10-21T07:27:21.583Z,99304.72
2022-10-21T07:29:53.367Z,99306.91
2022-10-21T07:32:26.057Z,99308.44
2022-10-21T07:35:02.161Z,99301.75
2022-10-21T07:37:33.644Z,99297.34
2022-10-21T07:40:08.003Z,99309.31
2022-10-21T07:42:40.027Z,99325.53
2022-10-21T07:45:11.914Z,99317.25
2022-10-21T07:47:43.926Z,99309.22
2022-10-21T07:50:16.827Z,99310.97
2022-10-21T07:52:58.354Z,99295.66
2022-10-21T07:55:37.790Z,99288.63
2022-10-21T07:58:09.674Z,99285.03
2022-10-21T08:00:46.826Z,99292.22
2022-10-21T08:03:18.938Z,99289.50
2022-10-21T08:05:51.759Z,99280.28
2022-10-21T08:08:25.031Z,99290.31
2022-10-21T08:10:56.853Z,99289.94
2022-10-21T08:13:31.756Z,99293.63
2022-10-21T08:16:05.774Z,99294.66
2022-10-21T08:18:40.375Z,99278.69
2022-10-21T08:21:12.143Z,99290.16
2022-10-21T08:23:46.999Z,99289.75
2022-10-21T08:26:19.030Z,99285.63
2022-10-21T08:28:51.867Z,99260.81
2022-10-21T08:31:24.009Z,99248.31
2022-10-21T08:33:56.099Z,99253.00
2022-10-21T08:36:28.618Z,99249.47
2022-10-21T08:39:00.554Z,99250.94
2022-10-21T08:41:38.588Z,99257.50
2022-10-21T08:44:47.194Z,99248.56
2022-10-21T08:47:31.182Z,99253.09
2022-10-21T08:50:37.473Z,99244.66
2022-10-21T08:53:31.803Z,99237.41
2022-10-21T08:56:17.017Z,99251.38
2022-10-21T08:58:52.652Z,99241.09
2022-10-21T09:01:42.790Z,99241.06
2022-10-21T09:04:43.800Z,99243.63
2022-10-21T09:07:29.668Z,99232.78
2022-10-21T09:10:10.473Z,99220.38
2022-10-21T09:13:08.188Z,99208.59
2022-10-21T09:16:05.978Z,99182.34
2022-10-21T09:18:50.620Z,99193.72
2022-10-21T09:21:37.545Z,99207.03
2022-10-21T09:24:19.183Z,99216.75
2022-10-21T09:26:53.148Z,99218.09
2022-10-21T09:29:38.235Z,99226.78
2022-10-21T09:32:18.208Z,99211.38
2022-10-21T09:34:58.430Z,99212.19
2022-10-21T09:37:38.330Z,99215.72
2022-10-21T09:40:20.532Z,99210.16
2022-10-21T09:42:56.087Z,99184.06
2022-10-21T09:45:39.157Z,99185.97
2022-10-21T09:48:22.810Z,99185.00
2022-10-21T09:51:06.665Z,99199.16
2022-10-21T09:53:54.295Z,99211.28
2022-10-21T09:56:34.199Z,99214.56
2022-10-21T09:59:17.636Z,99205.75
2022-10-21T10:01:50.581Z,99225.00
2022-10-21T10:04:33.724Z,99227.25
2022-10-21T10:07:35.249Z,99223.44
2022-10-21T10:10:31.635Z,99214.44
2022-10-21T10:13:03.424Z,99209.88
2022-10-21T10:15:37.553Z,99208.84
2022-10-21T10:18:29.815Z,99211.84
2022-10-21T10:21:13.268Z,99213.25
2022-10-21T10:23:55.977Z,99215.78
2022-10-21T10:26:45.439Z,99196.88
2022-10-21T10:29:28.701Z,99197.56
2022-10-21T10:32:02.339Z,99191.03
2022-10-21T10:34:37.102Z,99180.66
2022-10-21T10:37:27.717Z,99197.88
2022-10-21T10:40:02.736Z,99194.63
2022-10-21T10:42:41.924Z,99201.81
2022-10-21T10:45:20.384Z,99202.38
2022-10-21T10:47:57.828Z,99209.72
2022-10-21T10:50:38.516Z,99200.91
2022-10-21T10:53:33.464Z,99207.50
2022-10-21T10:56:06.278Z,99207.25
2022-10-21T10:58:45.533Z,99196.59
2022-10-21T11:01:25.446Z,99191.66
2022-10-21T11:04:23.646Z,99199.22
2022-10-21T11:07:09.276Z,99207.56
2022-10-21T11:09:40.985Z,99206.53
2022-10-21T11:12:22.244Z,99210.66
2022-10-21T11:14:56.876Z,99215.56
2022-10-21T11:17:36.227Z,99212.53
2022-10-21T11:20:27.247Z,99216.03
2022-10-21T11:23:28.725Z,99200.69
2022-10-21T11:26:19.669Z,99192.53
2022-10-21T11:29:36.543Z,99193.81
2022-10-21T11:32:17.074Z,99200.72
2022-10-21T11:34:56.632Z,99203.38
2022-10-21T11:37:57.204Z,99186.66
2022-10-21T11:40:54.718Z,99192.03
2022-10-21T11:43:57.027Z,99173.38
2022-10-21T11:46:56.340Z,99179.72
2022-10-21T11:49:53.664Z,99171.47
2022-10-21T11:52:40.812Z,99174.91
2022-10-21T11:55:35.782Z,99172.03
2022-10-21T11:58:32.712Z,99169.19
2022-10-21T12:01:33.822Z,99175.50
2022-10-21T12:04:27.244Z,99177.16
2022-10-21T12:06:58.948Z,99179.16
2022-10-21T12:09:30.603Z,99190.38
2022-10-21T12:12:10.999Z,99196.09
2022-10-21T12:14:48.898Z,99191.63
2022-10-21T12:17:23.096Z,99199.22
2022-10-21T12:19:59.485Z,99193.50
2022-10-21T12:22:33.705Z,99196.19
2022-10-21T12:25:20.051Z,99200.34
2022-10-21T12:28:16.318Z,99200.97
2022-10-21T12:31:17.536Z,99212.56
2022-10-21T12:33:50.651Z,99218.09
2022-10-21T12:36:25.848Z,99217.88
2022-10-21T12:39:01.311Z,99209.06
2022-10-21T12:41:39.583Z,99210.06
2022-10-21T12:44:21.396Z,99216.59
2022-10-21T12:46:56.707Z,99218.63
2022-10-21T12:49:32.845Z,99209.84
2022-10-21T12:52:10.591Z,99202.44
2022-10-21T12:55:04.148Z,99197.94
2022-10-21T12:57:39.421Z,99207.50
2022-10-21T13:02:59.364Z,99186.84
2022-10-21T13:05:37.041Z,99186.22
2022-10-21T13:08:24.216Z,99172.28
2022-10-21T13:11:07.919Z,99171.41
2022-10-21T13:13:49.766Z,99166.88
2022-10-21T13:16:21.574Z,99160.50
2022-10-21T13:19:04.066Z,99167.22
2022-10-21T13:21:39.840Z,99161.03
2022-10-21T13:24:11.630Z,99165.69
2022-10-21T13:26:58.301Z,99164.19
2022-10-21T13:29:47.063Z,99177.00
2022-10-21T13:32:25.898Z,99186.19
2022-10-21T13:35:21.166Z,99174.56
2022-10-21T13:37:59.055Z,99173.91
2022-10-21T13:40:45.176Z,99151.88
2022-10-21T13:43:28.902Z,99155.16
2022-10-21T13:46:18.744Z,99165.97
2022-10-21T13:48:50.481Z,99154.72
2022-10-21T13:51:26.026Z,99151.44
2022-10-21T13:54:10.790Z,99174.69
2022-10-21T13:56:43.679Z,99177.16
2022-10-21T13:59:33.890Z,99156.94
2022-10-21T14:02:23.749Z,99150.81
2022-10-21T14:04:55.415Z,99164.91
2022-10-21T14:07:30.627Z,99175.25
2022-10-21T14:10:07.385Z,99185.03
2022-10-21T14:12:44.157Z,99188.53
2022-10-21T14:15:22.841Z,99175.06
2022-10-21T14:17:58.391Z,99159.97
2022-10-21T14:20:36.034Z,99170.13
2022-10-21T14:23:16.165Z,99190.25
2022-10-21T14:25:49.475Z,99186.59
2022-10-21T14:28:22.512Z,99201.53
2022-10-21T14:30:54.453Z,99204.34
2022-10-21T14:33:28.589Z,99177.81
2022-10-21T14:36:08.521Z,99173.34
2022-10-21T14:39:03.510Z,99164.41
2022-10-21T14:41:37.554Z,99179.50
2022-10-21T14:44:16.839Z,99168.66
2022-10-21T14:46:50.977Z,99161.47
2022-10-21T14:49:36.388Z,99149.16
2022-10-21T14:52:09.127Z,99119.16
2022-10-21T14:54:49.720Z,99108.31
2022-10-21T14:57:42.031Z,99103.88
2022-10-21T15:00:26.386Z,99128.63
2022-10-21T15:03:02.063Z,99121.47
2022-10-21T15:05:35.671Z,99104.03
2022-10-21T15:08:19.243Z,99117.69
2022-10-21T15:10:56.879Z,99105.63
2022-10-21T15:13:28.577Z,99119.31
2022-10-21T15:16:01.430Z,99126.31
2022-10-21T15:18:39.497Z,99112.91
2022-10-21T15:21:15.075Z,99123.09
2022-10-21T15:23:53.165Z,99131.88
2022-10-21T15:26:37.827Z,99129.22
2022-10-21T15:29:23.965Z,99132.53
2022-10-21T15:31:57.619Z,99125.84
2022-10-21T15:34:29.470Z,99125.47
2022-10-21T15:37:05.317Z,99118.94
2022-10-21T15:39:37.092Z,99116.94
2022-10-21T15:42:11.355Z,99132.66
2022-10-21T15:44:50.150Z,99115.94
2022-10-21T15:47:28.152Z,99103.28
2022-10-21T15:49:59.820Z,99097.00
2022-10-21T15:52:31.892Z,99099.81
2022-10-21T15:55:03.848Z,99101.53
2022-10-21T15:57:35.965Z,99101.09
2022-10-21T16:00:36.124Z,99102.69
2022-10-21T16:03:10.208Z,99106.19
2022-10-21T16:05:42.000Z,99098.94
2022-10-21T16:08:13.877Z,99091.03
2022-10-21T16:10:47.907Z,99074.31
2022-10-21T16:13:19.755Z,99101.53
2022-10-21T16:15:51.459Z,99105.44
2022-10-21T16:18:23.529Z,99107.69
2022-10-21T16:20:55.215Z,99112.63
2022-10-21T16:23:26.925Z,99112.63
2022-10-21T16:25:58.584Z,99112.41
2022-10-21T16:28:31.471Z,99115.06
2022-10-21T16:31:03.429Z,99113.88
2022-10-21T16:33:35.181Z,99109.81
2022-10-21T16:36:32.591Z,99102.47
2022-10-21T16:39:18.463Z,99103.47
2022-10-21T16:41:50.691Z,99112.09
2022-10-21T16:44:23.266Z,99110.25
2022-10-21T16:46:55.485Z,99135.75
2022-10-21T16:49:28.450Z,99150.31
2022-10-21T16:52:02.139Z,99162.19
2022-10-21T16:54:36.477Z,99163.41
2022-10-21T16:57:08.577Z,99164.25
2022-10-21T16:59:40.248Z,99166.53
2022-10-21T17:02:20.236Z,99168.16
2022-10-21T17:04:52.064Z,99164.88
2022-10-21T17:07:23.778Z,99164.44
2022-10-21T17:09:55.555Z,99174.00
2022-10-21T17:12:27.446Z,99186.03
2022-10-21T17:15:00.066Z,99192.69
2022-10-21T17:17:31.953Z,99199.78
2022-10-21T17:20:04.212Z,99208.91
2022-10-21T17:22:36.913Z,99200.94
2022-10-21T17:25:11.964Z,99198.66
2022-10-21T17:27:43.750Z,99202.31
2022-10-21T17:30:19.037Z,99200.19
2022-10-21T17:32:53.378Z,99199.06
2022-10-21T17:35:25.125Z,99200.84
2022-10-21T17:37:57.110Z,99199.31
2022-10-21T17:40:29.920Z,99195.41
2022-10-21T17:43:01.818Z,99188.78
2022-10-21T17:45:33.454Z,99183.97
2022-10-21T17:48:05.415Z,99173.25
2022-10-21T17:50:39.323Z,99175.84
2022-10-21T17:53:11.065Z,99168.63
2022-10-21T17:55:42.856Z,99165.81
2022-10-21T17:58:15.747Z,99171.84
2022-10-21T18:00:47.720Z,99178.16
2022-10-21T18:03:19.552Z,99168.13
2022-10-21T18:05:51.909Z,99166.38
2022-10-21T18:08:23.922Z,99172.63
2022-10-21T18:10:57.501Z,99171.16
2022-10-21T18:13:30.770Z,99176.19
2022-10-21T18:16:10.596Z,99169.25
2022-10-21T18:21:23.490Z,99171.44
2022-10-21T18:23:55.289Z,99169.81
2022-10-21T18:26:30.798Z,99173.63
2022-10-21T18:29:04.650Z,99175.81
2022-10-21T18:31:38.005Z,99165.97
2022-10-21T18:34:12.993Z,99163.03
2022-10-21T18:36:44.977Z,99154.44
2022-10-21T18:39:17.164Z,99151.16
2022-10-21T18:41:51.793Z,99155.34
2022-10-21T18:44:23.664Z,99155.09
2022-10-21T18:46:56.164Z,99154.25
2022-10-21T18:49:28.155Z,99152.63
2022-10-21T18:52:00.002Z,99154.44
2022-10-21T18:54:31.876Z,99150.50
2022-10-21T18:57:10.085Z,99147.88
2022-10-21T18:59:42.334Z,99157.28
2022-10-21T19:02:21.472Z,99142.41
2022-10-21T19:04:54.964Z,99131.38
2022-10-21T19:07:30.023Z,99132.06
2022-10-21T19:10:07.363Z,99131.72
2022-10-21T19:12:42.081Z,99137.19
2022-10-21T19:15:16.066Z,99144.47
2022-10-21T19:17:48.116Z,99151.75
2022-10-21T19:20:20.303Z,99163.34
2022-10-21T19:22:53.171Z,99152.75
2022-10-21T19:25:28.808Z,99148.47
2022-10-21T19:28:00.552Z,99146.19
2022-10-21T19:30:33.280Z,99150.22
2022-10-21T19:33:06.661Z,99147.72
2022-10-21T19:35:38.702Z,99159.84
2022-10-21T19:38:20.880Z,99154.28
2022-10-21T19:40:58.778Z,99149.63
2022-10-21T19:43:30.565Z,99156.09
2022-10-21T19:46:07.445Z,99166.69
2022-10-21T19:48:42.365Z,99170.16
2022-10-21T19:51:16.453Z,99174.97
2022-10-21T19:53:49.916Z,99182.06
2022-10-21T19:56:25.708Z,99176.34
2022-10-21T19:59:02.934Z,99184.09
2022-10-21T20:01:34.972Z,99181.63
2022-10-21T20:04:08.044Z,99177.88
2022-10-21T20:06:40.095Z,99183.31
2022-10-21T20:09:14.010Z,99191.44
2022-10-21T20:11:45.927Z,99179.03
2022-10-21T20:14:18.597Z,99181.66
2022-10-21T20:16:52.983Z,99188.63
2022-10-21T20:19:25.327Z,99185.31
2022-10-21T20:21:57.201Z,99187.63
2022-10-21T20:24:29.175Z,99193.56
2022-10-21T20:27:02.319Z,99185.63
2022-10-21T20:29:35.022Z,99177.03
2022-10-21T20:32:09.971Z,99175.22
2022-10-21T20:34:44.771Z,99173.41
2022-10-21T20:37:21.057Z,99170.94
2022-10-21T20:39:55.305Z,99170.94
2022-10-21T20:42:28.383Z,99161.34
2022-10-21T20:45:02.100Z,99172.28
2022-10-21T20:47:36.831Z,99174.13
2022-10-21T20:50:09.328Z,99169.81
2022-10-21T20:52:43.837Z,99158.59
2022-10-21T20:55:15.662Z,99168.34
2022-10-21T20:57:47.726Z,99162.75
2022-10-21T21:00:20.413Z,99154.38
2022-10-21T21:02:52.604Z,99153.88
2022-10-21T21:05:25.033Z,99157.19
2022-10-21T21:07:56.683Z,99166.88
2022-10-21T21:10:28.432Z,99155.31
2022-10-21T21:13:00.395Z,99152.66
2022-10-21T21:15:32.111Z,99152.34
2022-10-21T21:18:11.600Z,99150.25
2022-10-21T21:20:43.311Z,99155.75
2022-10-21T21:23:14.950Z,99153.44
2022-10-21T21:25:49.914Z,99151.94
2022-10-21T21:28:21.565Z,99149.50
2022-10-21T21:30:53.417Z,99152.31
2022-10-21T21:33:25.524Z,99156.94
2022-10-21T21:35:57.676Z,99144.56
2022-10-21T21:38:29.842Z,99143.56
2022-10-21T21:41:06.803Z,99152.31
2022-10-21T21:43:43.662Z,99146.03
2022-10-21T21:46:22.819Z,99144.22
2022-10-21T21:49:01.032Z,99149.50
2022-10-21T21:51:36.667Z,99154.78
2022-10-21T21:54:08.462Z,99161.72
2022-10-21T21:56:40.274Z,99157.44
2022-10-21T21:59:12.049Z,99156.44
2022-10-21T22:01:43.995Z,99152.78
2022-10-21T22:04:16.604Z,99152.78
2022-10-21T22:06:48.346Z,99147.84
2022-10-21T22:09:20.155Z,99147.84
2022-10-21T22:11:51.893Z,99147.03
2022-10-21T22:14:23.797Z,99145.38
2022-10-21T22:16:57.590Z,99143.56
2022-10-21T22:19:29.290Z,99141.47
2022-10-21T22:22:04.025Z,99138.97
2022-10-21T22:24:36.157Z,99139.53
2022-10-21T22:27:08.207Z,99136.38
2022-10-21T22:29:40.283Z,99129.28
2022-10-21T22:32:12.977Z,99133.75
2022-10-21T22:34:45.344Z,99128.13
2022-10-21T22:37:17.537Z,99132.75
2022-10-21T22:39:49.287Z,99131.75
2022-10-21T22:42:23.726Z,99130.75
2022-10-21T22:44:55.352Z,99136.88
2022-10-21T22:47:27.139Z,99130.59
2022-10-21T22:49:58.768Z,99126.13
2022-10-21T22:52:30.564Z,99121.69
2022-10-21T22:55:02.206Z,99118.00
2022-10-21T22:57:36.672Z,99110.06
2022-10-21T23:00:10.820Z,99104.16
2022-10-21T23:02:42.743Z,99109.25
2022-10-21T23:05:15.011Z,99107.28
2022-10-21T23:07:47.436Z,99104.47
2022-10-21T23:10:19.247Z,99103.25
2022-10-21T23:12:53.823Z,99099.63
2022-10-21T23:15:25.456Z,99086.06
2022-10-21T23:17:57.776Z,99076.94
2022-10-21T23:20:31.637Z,99077.16
2022-10-21T23:23:03.425Z,99082.59
2022-10-21T23:25:35.130Z,99074.19
2022-10-21T23:28:09.790Z,99067.28
2022-10-21T23:30:43.277Z,99063.00
2022-10-21T23:33:18.083Z,99058.88
2022-10-21T23:35:50.490Z,99057.22
2022-10-21T23:38:24.803Z,99064.69
2022-10-21T23:41:00.592Z,99076.09
2022-10-21T23:43:32.275Z,99085.47
2022-10-21T23:46:04.036Z,99098.34
2022-10-21T23:48:36.263Z,99101.66
2022-10-21T23:51:33.226Z,99104.47
2022-10-21T23:54:05.087Z,99105.28
2022-10-21T23:56:36.731Z,99101.00
2022-10-21T23:59:08.487Z,99091.41
